createdAt,value
2023-01-07T00:01:20.969Z,0.98
2023-01-07T00:03:48.847Z,0.55
2023-01-07T00:06:36.534Z,1.30
2023-01-07T00:09:05.001Z,1.80
2023-01-07T00:11:34.239Z,1.35
2023-01-07T00:14:01.734Z,1.38
2023-01-07T00:16:31.120Z,1.77
2023-01-07T00:18:59.686Z,1.88
2023-01-07T00:21:28.260Z,1.52
2023-01-07T00:24:00.137Z,1.45
2023-01-07T00:26:33.738Z,1.60
2023-01-07T00:29:00.391Z,1.13
2023-01-07T00:31:30.084Z,1.65
2023-01-07T00:33:56.973Z,2.20
2023-01-07T00:36:25.629Z,3.38
2023-01-07T00:38:56.721Z,1.27
2023-01-07T00:41:24.210Z,1.58
2023-01-07T00:43:51.540Z,1.25
2023-01-07T00:46:18.222Z,1.27
2023-01-07T00:48:45.513Z,6.07
2023-01-07T00:51:14.117Z,0.98
2023-01-07T00:53:41.111Z,2.63
2023-01-07T00:56:09.895Z,1.48
2023-01-07T00:58:36.687Z,1.77
2023-01-07T01:01:04.554Z,2.15
2023-01-07T01:03:32.448Z,1.10
2023-01-07T01:06:07.943Z,1.10
2023-01-07T01:08:34.539Z,3.20
2023-01-07T01:11:08.798Z,1.55
2023-01-07T01:13:35.837Z,0.95
2023-01-07T01:16:07.670Z,1.40
2023-01-07T01:18:34.308Z,2.40
2023-01-07T01:21:06.620Z,0.47
2023-01-07T01:23:33.852Z,0.60
2023-01-07T01:26:04.378Z,2.67
2023-01-07T01:28:31.712Z,1.30
2023-01-07T01:30:58.387Z,0.97
2023-01-07T01:33:29.757Z,1.10
2023-01-07T01:35:56.689Z,2.00
2023-01-07T01:38:23.296Z,0.95
2023-01-07T01:40:50.263Z,1.65
2023-01-07T01:43:38.819Z,2.90
2023-01-07T01:46:16.225Z,1.27
2023-01-07T01:49:00.390Z,1.27
2023-01-07T01:51:31.524Z,2.17
2023-01-07T01:53:58.137Z,0.85
2023-01-07T01:56:29.509Z,0.52
2023-01-07T01:59:04.329Z,0.85
2023-01-07T02:01:35.860Z,0.50
2023-01-07T02:04:12.236Z,1.88
2023-01-07T02:06:53.910Z,1.63
2023-01-07T02:09:20.972Z,1.23
2023-01-07T02:12:00.119Z,1.02
2023-01-07T02:15:00.112Z,1.23
2023-01-07T02:17:57.825Z,1.02
2023-01-07T02:20:30.079Z,0.55
2023-01-07T02:23:18.095Z,1.02
2023-01-07T02:25:44.931Z,1.20
2023-01-07T02:28:23.942Z,0.80
2023-01-07T02:31:07.950Z,2.90
2023-01-07T02:33:55.350Z,0.73
2023-01-07T02:36:32.159Z,1.58
2023-01-07T02:39:34.424Z,1.67
2023-01-07T02:42:13.492Z,1.30
2023-01-07T02:45:27.205Z,2.10
2023-01-07T02:48:00.289Z,0.70
2023-01-07T02:50:26.916Z,1.73
2023-01-07T02:52:54.034Z,1.02
2023-01-07T02:55:54.835Z,1.58
2023-01-07T02:58:41.561Z,1.45
2023-01-07T03:01:21.439Z,1.48
2023-01-07T03:03:56.670Z,1.50
2023-01-07T03:06:32.273Z,1.48
2023-01-07T03:09:27.132Z,1.50
2023-01-07T03:12:33.948Z,2.35
2023-01-07T03:15:23.124Z,1.95
2023-01-07T03:18:00.900Z,1.13
2023-01-07T03:20:29.501Z,2.88
2023-01-07T03:22:58.405Z,3.40
2023-01-07T03:25:28.426Z,2.13
2023-01-07T03:27:57.820Z,1.42
2023-01-07T03:30:25.271Z,0.93
2023-01-07T03:32:58.683Z,1.25
2023-01-07T03:35:26.464Z,1.00
2023-01-07T03:37:53.438Z,1.48
2023-01-07T03:40:20.831Z,2.08
2023-01-07T03:45:24.149Z,2.55
2023-01-07T03:47:54.717Z,2.03
2023-01-07T03:50:23.648Z,2.00
2023-01-07T03:52:51.415Z,2.10
2023-01-07T03:57:47.689Z,3.40
2023-01-07T04:00:15.014Z,2.50
2023-01-07T04:02:44.439Z,2.60
2023-01-07T04:05:20.404Z,2.80
2023-01-07T04:07:47.691Z,3.03
2023-01-07T04:10:14.479Z,2.50
2023-01-07T04:12:42.144Z,1.95
2023-01-07T04:15:09.088Z,2.10
2023-01-07T04:17:35.631Z,2.92
2023-01-07T04:20:02.346Z,3.20
2023-01-07T04:22:28.908Z,1.98
2023-01-07T04:24:55.547Z,2.08
2023-01-07T04:27:22.041Z,1.75
2023-01-07T04:29:48.788Z,3.13
2023-01-07T04:32:15.705Z,1.77
2023-01-07T04:34:42.511Z,2.13
2023-01-07T04:37:09.578Z,3.25
2023-01-07T04:39:36.167Z,4.80
2023-01-07T04:42:02.779Z,1.92
2023-01-07T04:44:29.666Z,2.00
2023-01-07T04:46:56.855Z,2.90
2023-01-07T04:49:24.346Z,2.28
2023-01-07T04:51:51.877Z,2.88
2023-01-07T04:54:18.937Z,2.28
2023-01-07T04:56:45.693Z,5.30
2023-01-07T04:59:12.789Z,2.10
2023-01-07T05:01:40.372Z,2.33
2023-01-07T05:04:08.193Z,3.95
2023-01-07T05:06:35.719Z,3.05
2023-01-07T05:09:02.996Z,2.33
2023-01-07T05:11:31.215Z,2.35
2023-01-07T05:14:00.530Z,2.55
2023-01-07T05:16:30.065Z,2.72
2023-01-07T05:19:00.148Z,5.20
2023-01-07T05:21:27.540Z,3.27
2023-01-07T05:23:54.124Z,3.80
2023-01-07T05:26:21.576Z,2.00
2023-01-07T05:28:48.513Z,4.38
2023-01-07T05:31:15.861Z,4.23
2023-01-07T05:33:43.289Z,2.00
2023-01-07T05:36:10.312Z,3.35
2023-01-07T05:38:36.896Z,3.33
2023-01-07T05:41:04.293Z,3.58
2023-01-07T05:43:31.912Z,2.63
2023-01-07T05:45:58.465Z,2.47
2023-01-07T05:48:25.456Z,2.72
2023-01-07T05:50:52.004Z,2.88
2023-01-07T05:53:18.682Z,3.15
2023-01-07T05:55:45.458Z,2.40
2023-01-07T05:58:12.212Z,1.65
2023-01-07T06:00:38.832Z,3.30
2023-01-07T06:03:05.833Z,2.85
2023-01-07T06:05:32.728Z,3.97
2023-01-07T06:07:59.308Z,4.30
2023-01-07T06:10:25.801Z,2.28
2023-01-07T06:12:52.280Z,2.20
2023-01-07T06:15:18.937Z,2.13
2023-01-07T06:17:45.523Z,5.88
2023-01-07T06:20:12.593Z,2.35
2023-01-07T06:22:39.330Z,5.53
2023-01-07T06:25:05.911Z,7.18
2023-01-07T06:27:32.497Z,2.95
2023-01-07T06:29:59.097Z,3.15
2023-01-07T06:32:25.871Z,2.63
2023-01-07T06:34:52.412Z,2.72
2023-01-07T06:37:18.994Z,3.10
2023-01-07T06:39:45.489Z,3.53
2023-01-07T06:42:12.071Z,2.38
2023-01-07T06:44:38.606Z,3.70
2023-01-07T06:47:05.171Z,3.60
2023-01-07T06:49:31.759Z,4.50
2023-01-07T06:51:58.232Z,2.45
2023-01-07T06:54:24.889Z,3.13
2023-01-07T06:56:51.446Z,4.93
2023-01-07T06:59:17.907Z,4.40
2023-01-07T07:01:46.427Z,3.47
2023-01-07T07:04:13.436Z,3.22
2023-01-07T07:06:39.989Z,3.25
2023-01-07T07:09:06.620Z,4.05
2023-01-07T07:11:33.144Z,2.20
2023-01-07T07:13:59.699Z,3.17
2023-01-07T07:16:26.505Z,2.72
2023-01-07T07:18:53.826Z,5.10
2023-01-07T07:21:20.319Z,3.93
2023-01-07T07:23:46.892Z,4.25
2023-01-07T07:26:13.875Z,3.22
2023-01-07T07:28:40.352Z,4.72
2023-01-07T07:31:07.092Z,3.50
2023-01-07T07:33:33.570Z,5.43
2023-01-07T07:36:00.414Z,5.13
2023-01-07T07:38:26.860Z,5.85
2023-01-07T07:40:53.431Z,4.18
2023-01-07T07:43:20.297Z,3.70
2023-01-07T07:45:46.777Z,3.10
2023-01-07T07:48:14.670Z,4.10
2023-01-07T07:50:41.595Z,4.65
2023-01-07T07:53:08.410Z,3.67
2023-01-07T07:55:36.866Z,6.10
2023-01-07T07:58:03.423Z,22.05
2023-01-07T08:00:29.969Z,37.55
2023-01-07T08:02:59.932Z,33.47
2023-01-07T08:05:27.715Z,16.58
2023-01-07T08:07:54.450Z,9.23
2023-01-07T08:10:21.019Z,9.43
2023-01-07T08:12:48.090Z,5.88
2023-01-07T08:15:14.724Z,5.05
2023-01-07T08:17:41.313Z,3.00
2023-01-07T08:20:08.884Z,5.13
2023-01-07T08:22:35.441Z,5.63
2023-01-07T08:25:02.450Z,5.05
2023-01-07T08:27:29.565Z,4.32
2023-01-07T08:29:56.760Z,5.03
2023-01-07T08:32:23.352Z,5.87
2023-01-07T08:34:50.019Z,4.25
2023-01-07T08:37:16.891Z,4.72
2023-01-07T08:39:43.386Z,3.30
2023-01-07T08:42:09.906Z,6.40
2023-01-07T08:44:36.504Z,3.60
2023-01-07T08:47:03.030Z,3.42
2023-01-07T08:49:29.631Z,5.28
2023-01-07T08:51:56.101Z,3.95
2023-01-07T08:54:22.579Z,6.22
2023-01-07T08:56:49.197Z,4.95
2023-01-07T08:59:15.713Z,3.03
2023-01-07T09:01:42.326Z,2.63
2023-01-07T09:04:09.036Z,6.07
2023-01-07T09:06:35.550Z,2.58
2023-01-07T09:09:02.051Z,2.75
2023-01-07T09:11:28.716Z,3.17
2023-01-07T09:13:55.257Z,2.50
2023-01-07T09:16:21.947Z,2.25
2023-01-07T09:18:50.124Z,4.03
2023-01-07T09:23:43.056Z,1.50
2023-01-07T09:26:09.810Z,3.13
2023-01-07T09:28:36.315Z,3.72
2023-01-07T09:31:05.586Z,4.18
2023-01-07T09:33:32.360Z,3.95
2023-01-07T09:35:58.851Z,5.60
2023-01-07T09:38:25.506Z,4.72
2023-01-07T09:40:53.042Z,8.07
2023-01-07T09:44:01.184Z,3.00
2023-01-07T09:46:28.433Z,4.88
2023-01-07T09:49:00.471Z,3.20
2023-01-07T09:51:40.684Z,3.65
2023-01-07T09:54:27.482Z,9.77
2023-01-07T09:56:54.460Z,5.07
2023-01-07T09:59:21.218Z,5.45
2023-01-07T10:01:55.108Z,5.47
2023-01-07T10:04:35.089Z,7.20
2023-01-07T10:07:27.096Z,3.08
2023-01-07T10:09:53.877Z,4.65
2023-01-07T10:12:30.647Z,3.08
2023-01-07T10:15:19.806Z,4.25
2023-01-07T10:18:10.728Z,3.05
2023-01-07T10:20:50.676Z,4.88
2023-01-07T10:23:22.552Z,4.93
2023-01-07T10:25:51.882Z,5.13
2023-01-07T10:28:25.211Z,3.50
2023-01-07T10:30:51.749Z,3.08
2023-01-07T10:33:24.515Z,2.30
2023-01-07T10:36:08.941Z,8.60
2023-01-07T10:38:41.109Z,4.32
2023-01-07T10:41:18.096Z,4.78
2023-01-07T10:44:09.619Z,4.45
2023-01-07T10:46:45.263Z,2.78
2023-01-07T10:49:45.396Z,3.45
2023-01-07T10:52:35.360Z,4.20
2023-01-07T10:55:36.455Z,2.83
2023-01-07T10:58:03.939Z,3.08
2023-01-07T11:00:30.622Z,2.75
2023-01-07T11:02:59.241Z,2.97
2023-01-07T11:05:38.883Z,2.15
2023-01-07T11:08:15.901Z,3.30
2023-01-07T11:10:42.805Z,3.60
2023-01-07T11:13:29.837Z,4.68
2023-01-07T11:16:01.537Z,3.90
2023-01-07T11:18:39.428Z,4.63
2023-01-07T11:21:06.034Z,2.35
2023-01-07T11:23:40.127Z,2.92
2023-01-07T11:26:26.499Z,5.47
2023-01-07T11:28:56.524Z,2.47
2023-01-07T11:31:42.875Z,3.35
2023-01-07T11:34:32.079Z,2.58
2023-01-07T11:36:58.598Z,2.55
2023-01-07T11:39:28.256Z,2.38
2023-01-07T11:41:57.827Z,3.80
2023-01-07T11:44:24.893Z,2.97
2023-01-07T11:46:52.731Z,2.53
2023-01-07T11:49:23.862Z,3.85
2023-01-07T11:51:50.914Z,3.92
2023-01-07T11:54:23.855Z,2.85
2023-01-07T11:56:51.429Z,5.53
2023-01-07T11:59:18.864Z,3.33
2023-01-07T12:01:50.816Z,2.72
2023-01-07T12:04:29.751Z,3.05
2023-01-07T12:07:00.217Z,3.55
2023-01-07T12:09:38.840Z,2.28
2023-01-07T12:12:12.971Z,2.60
2023-01-07T12:14:39.713Z,6.53
2023-01-07T12:17:10.544Z,2.10
2023-01-07T12:20:10.816Z,3.63
2023-01-07T12:23:04.363Z,2.55
2023-01-07T12:26:11.964Z,3.15
2023-01-07T12:28:57.138Z,2.85
2023-01-07T12:32:14.406Z,2.92
2023-01-07T12:35:14.965Z,2.50
2023-01-07T12:37:48.529Z,3.97
2023-01-07T12:40:18.566Z,1.63
2023-01-07T12:42:52.771Z,3.30
2023-01-07T12:45:36.239Z,2.70
2023-01-07T12:48:10.711Z,1.92
2023-01-07T12:50:47.618Z,3.55
2023-01-07T12:53:55.351Z,2.92
2023-01-07T12:56:29.136Z,6.60
2023-01-07T12:59:45.659Z,3.45
2023-01-07T13:02:25.152Z,2.30
2023-01-07T13:05:15.760Z,2.63
2023-01-07T13:07:42.183Z,3.50
2023-01-07T13:10:20.741Z,4.18
2023-01-07T13:12:49.108Z,3.92
2023-01-07T13:15:21.671Z,3.22
2023-01-07T13:17:50.644Z,2.55
2023-01-07T13:20:27.970Z,1.98
2023-01-07T13:22:56.745Z,1.77
2023-01-07T13:25:46.427Z,2.85
2023-01-07T13:28:28.694Z,2.03
2023-01-07T13:31:33.425Z,1.77
2023-01-07T13:34:33.584Z,2.60
2023-01-07T13:37:24.767Z,1.25
2023-01-07T13:40:12.905Z,1.90
2023-01-07T13:42:48.902Z,1.20
2023-01-07T13:45:27.084Z,1.90
2023-01-07T13:47:57.285Z,2.13
2023-01-07T13:50:25.649Z,1.40
2023-01-07T13:53:02.271Z,1.80
2023-01-07T13:55:43.151Z,1.10
2023-01-07T13:58:31.466Z,2.22
2023-01-07T14:01:10.020Z,2.72
2023-01-07T14:03:44.516Z,2.35
2023-01-07T14:06:19.589Z,2.25
2023-01-07T14:08:50.039Z,2.35
2023-01-07T14:11:18.824Z,1.52
2023-01-07T14:13:55.847Z,2.38
2023-01-07T14:16:33.862Z,1.45
2023-01-07T14:19:16.163Z,1.60
2023-01-07T14:22:02.675Z,2.60
2023-01-07T14:24:47.693Z,1.02
2023-01-07T14:27:40.603Z,2.05
2023-01-07T14:30:25.368Z,2.47
2023-01-07T14:33:05.898Z,2.67
2023-01-07T14:35:42.892Z,3.35
2023-01-07T14:38:28.120Z,3.40
2023-01-07T14:41:04.180Z,2.22
2023-01-07T14:43:43.101Z,2.40
2023-01-07T14:46:21.904Z,3.20
2023-01-07T14:49:00.134Z,1.83
2023-01-07T14:51:58.303Z,3.65
2023-01-07T14:54:46.343Z,1.83
2023-01-07T14:57:42.752Z,1.45
2023-01-07T15:00:31.934Z,7.43
2023-01-07T15:03:27.958Z,1.52
2023-01-07T15:05:58.508Z,2.33
2023-01-07T15:08:28.816Z,2.17
2023-01-07T15:10:58.926Z,2.47
2023-01-07T15:13:25.879Z,2.78
2023-01-07T15:15:55.241Z,2.53
2023-01-07T15:18:22.638Z,5.85
2023-01-07T15:21:07.931Z,4.75
2023-01-07T15:23:53.498Z,4.85
2023-01-07T15:26:44.290Z,3.92
2023-01-07T15:29:18.881Z,8.15
2023-01-07T15:31:57.496Z,7.80
2023-01-07T15:34:30.223Z,7.88
2023-01-07T15:36:57.596Z,6.75
2023-01-07T15:39:28.599Z,3.90
2023-01-07T15:41:57.403Z,4.38
2023-01-07T15:44:29.022Z,5.07
2023-01-07T15:46:55.939Z,3.63
2023-01-07T15:49:27.348Z,3.65
2023-01-07T15:51:56.415Z,2.33
2023-01-07T15:54:36.784Z,2.42
2023-01-07T15:57:28.322Z,3.20
2023-01-07T15:59:55.892Z,2.72
2023-01-07T16:02:28.449Z,4.18
2023-01-07T16:04:58.776Z,3.75
2023-01-07T16:07:32.533Z,3.53
2023-01-07T16:10:00.193Z,3.97
2023-01-07T16:12:29.683Z,2.30
2023-01-07T16:14:56.528Z,3.28
2023-01-07T16:17:23.074Z,5.28
2023-01-07T16:19:49.770Z,3.78
2023-01-07T16:22:21.363Z,2.15
2023-01-07T16:24:53.348Z,1.98
2023-01-07T16:27:29.104Z,2.47
2023-01-07T16:29:58.757Z,2.03
2023-01-07T16:32:26.695Z,1.75
2023-01-07T16:34:59.303Z,2.10
2023-01-07T16:37:26.861Z,3.50
2023-01-07T16:39:54.125Z,2.05
2023-01-07T16:42:22.035Z,1.57
2023-01-07T16:44:54.625Z,5.18
2023-01-07T16:47:27.131Z,16.33
2023-01-07T16:49:55.818Z,11.02
2023-01-07T16:52:26.515Z,16.70
2023-01-07T16:54:53.068Z,10.30
2023-01-07T16:57:30.035Z,7.72
2023-01-07T16:59:58.611Z,5.95
2023-01-07T17:02:33.488Z,6.82
2023-01-07T17:05:15.040Z,7.53
2023-01-07T17:07:46.408Z,4.13
2023-01-07T17:10:39.877Z,2.50
2023-01-07T17:13:15.009Z,1.83
2023-01-07T17:15:42.879Z,2.63
2023-01-07T17:18:12.440Z,1.90
2023-01-07T17:20:47.814Z,1.55
2023-01-07T17:23:26.636Z,2.03
2023-01-07T17:25:57.749Z,2.65
2023-01-07T17:28:26.215Z,2.20
2023-01-07T17:30:53.668Z,3.35
2023-01-07T17:33:23.412Z,2.38
2023-01-07T17:35:51.287Z,5.63
2023-01-07T17:38:18.235Z,7.95
2023-01-07T17:40:45.592Z,23.08
2023-01-07T17:43:20.830Z,20.27
2023-01-07T17:45:47.484Z,18.77
2023-01-07T17:48:14.233Z,16.05
2023-01-07T17:50:41.945Z,15.07
2023-01-07T17:53:21.902Z,16.48
2023-01-07T17:55:48.531Z,14.70
2023-01-07T17:58:25.802Z,12.05
2023-01-07T18:00:52.403Z,11.77
2023-01-07T18:03:19.013Z,13.13
2023-01-07T18:05:45.578Z,20.27
2023-01-07T18:08:12.067Z,11.65
2023-01-07T18:10:38.614Z,8.48
2023-01-07T18:13:05.073Z,2.75
2023-01-07T18:15:31.641Z,1.90
2023-01-07T18:17:58.158Z,2.45
2023-01-07T18:20:24.677Z,3.97
2023-01-07T18:22:51.265Z,2.08
2023-01-07T18:25:20.735Z,3.10
2023-01-07T18:27:48.859Z,3.35
2023-01-07T18:32:46.203Z,5.05
2023-01-07T18:35:13.220Z,12.93
2023-01-07T18:37:40.060Z,23.38
2023-01-07T18:40:08.192Z,28.40
2023-01-07T18:45:02.543Z,13.40
2023-01-07T18:47:29.121Z,7.28
2023-01-07T18:49:55.930Z,7.45
2023-01-07T18:52:22.567Z,5.00
2023-01-07T18:54:49.115Z,5.38
2023-01-07T18:57:15.781Z,4.57
2023-01-07T18:59:42.297Z,7.35
2023-01-07T19:02:18.652Z,3.38
2023-01-07T19:04:47.113Z,4.00
2023-01-07T19:07:14.167Z,3.20
2023-01-07T19:09:40.677Z,4.57
2023-01-07T19:12:07.473Z,3.45
2023-01-07T19:14:34.722Z,3.65
2023-01-07T19:17:01.429Z,22.70
2023-01-07T19:19:32.072Z,23.58
2023-01-07T19:22:00.923Z,10.95
2023-01-07T19:24:27.484Z,6.25
2023-01-07T19:26:54.081Z,6.55
2023-01-07T19:29:20.730Z,7.13
2023-01-07T19:31:47.455Z,11.75
2023-01-07T19:34:14.776Z,8.30
2023-01-07T19:36:42.201Z,8.63
2023-01-07T19:39:16.030Z,9.40
2023-01-07T19:41:43.257Z,8.77
2023-01-07T19:44:10.353Z,6.65
2023-01-07T19:46:37.357Z,7.77
2023-01-07T19:49:05.633Z,6.68
2023-01-07T19:51:35.949Z,6.35
2023-01-07T19:54:03.703Z,9.07
2023-01-07T19:56:30.272Z,6.32
2023-01-07T19:58:57.665Z,11.38
2023-01-07T20:01:25.226Z,8.82
2023-01-07T20:03:53.057Z,9.60
2023-01-07T20:06:22.606Z,8.88
2023-01-07T20:08:52.644Z,11.30
2023-01-07T20:11:19.214Z,10.88
2023-01-07T20:13:46.994Z,8.40
2023-01-07T20:16:18.694Z,10.50
2023-01-07T20:18:47.390Z,7.53
2023-01-07T20:21:16.384Z,9.15
2023-01-07T20:23:43.534Z,7.00
2023-01-07T20:26:13.478Z,9.00
2023-01-07T20:28:40.575Z,12.65
2023-01-07T20:31:09.694Z,11.82
2023-01-07T20:33:37.071Z,13.57
2023-01-07T20:36:13.202Z,13.68
2023-01-07T20:38:40.143Z,12.35
2023-01-07T20:41:08.904Z,11.18
2023-01-07T20:43:36.663Z,20.55
2023-01-07T20:46:06.466Z,11.25
2023-01-07T20:48:34.054Z,11.52
2023-01-07T20:51:06.020Z,7.53
2023-01-07T20:53:32.806Z,9.15
2023-01-07T20:56:00.591Z,10.80
2023-01-07T20:58:29.870Z,7.15
2023-01-07T21:00:56.631Z,8.23
2023-01-07T21:03:23.227Z,9.82
2023-01-07T21:05:49.811Z,8.05
2023-01-07T21:08:16.414Z,9.23
2023-01-07T21:10:42.886Z,10.93
2023-01-07T21:13:09.447Z,9.40
2023-01-07T21:15:35.918Z,6.78
2023-01-07T21:18:02.484Z,11.18
2023-01-07T21:20:29.001Z,10.18
2023-01-07T21:22:55.510Z,7.82
2023-01-07T21:25:21.976Z,9.00
2023-01-07T21:27:48.463Z,8.75
2023-01-07T21:30:15.402Z,7.85
2023-01-07T21:32:42.239Z,5.22
2023-01-07T21:35:10.517Z,7.53
2023-01-07T21:37:37.217Z,17.05
2023-01-07T21:40:04.908Z,9.35
2023-01-07T21:42:31.783Z,7.90
2023-01-07T21:44:58.250Z,10.60
2023-01-07T21:47:24.934Z,4.78
2023-01-07T21:49:51.420Z,8.55
2023-01-07T21:52:18.472Z,4.97
2023-01-07T21:54:46.114Z,8.65
2023-01-07T21:57:12.754Z,7.15
2023-01-07T21:59:39.455Z,6.65
2023-01-07T22:02:06.165Z,6.35
2023-01-07T22:04:32.815Z,5.50
2023-01-07T22:06:59.306Z,5.55
2023-01-07T22:09:25.817Z,5.03
2023-01-07T22:11:52.489Z,7.20
2023-01-07T22:14:19.141Z,5.90
2023-01-07T22:16:49.304Z,6.20
2023-01-07T22:19:16.057Z,5.47
2023-01-07T22:21:42.600Z,5.90
2023-01-07T22:24:09.425Z,7.50
2023-01-07T22:26:36.091Z,5.15
2023-01-07T22:29:06.489Z,5.93
2023-01-07T22:31:35.529Z,5.07
2023-01-07T22:34:02.626Z,4.53
2023-01-07T22:36:36.732Z,7.88
2023-01-07T22:39:10.290Z,6.05
2023-01-07T22:41:37.320Z,6.75
2023-01-07T22:44:09.167Z,6.25
2023-01-07T22:46:38.093Z,5.63
2023-01-07T22:49:05.820Z,4.13
2023-01-07T22:51:38.851Z,6.30
2023-01-07T22:54:06.273Z,4.35
2023-01-07T22:56:34.158Z,6.43
2023-01-07T22:59:00.820Z,3.25
2023-01-07T23:01:27.573Z,4.50
2023-01-07T23:03:54.151Z,5.40
2023-01-07T23:06:21.430Z,4.80
2023-01-07T23:08:47.958Z,4.43
2023-01-07T23:11:14.616Z,2.60
2023-01-07T23:13:41.107Z,3.03
2023-01-07T23:16:08.099Z,2.70
2023-01-07T23:18:34.881Z,3.17
2023-01-07T23:21:04.479Z,2.92
2023-01-07T23:23:31.071Z,1.88
2023-01-07T23:25:57.656Z,4.50
2023-01-07T23:28:24.312Z,2.70
2023-01-07T23:30:50.929Z,4.07
2023-01-07T23:33:17.407Z,3.22
2023-01-07T23:35:44.018Z,4.32
2023-01-07T23:38:10.635Z,2.78
2023-01-07T23:40:37.257Z,2.70
2023-01-07T23:43:03.806Z,4.28
2023-01-07T23:45:30.397Z,2.90
2023-01-07T23:47:57.028Z,1.95
2023-01-07T23:50:23.592Z,2.88
2023-01-07T23:52:50.088Z,2.83
2023-01-07T23:55:16.655Z,1.52
2023-01-07T23:57:43.303Z,2.40
